sensor_id;sensor_type;location;lat;lon;timestamp;pressure;altitude;pressure_sealevel;temperature;humidity
50368;BME280;36281;34.132;-118.018;2024-02-21T00:00:42;100454.06;;;15.03;100.00
50368;BME280;36281;34.132;-118.018;2024-02-21T00:03:11;100463.69;;;15.04;100.00
50368;BME280;36281;34.132;-118.018;2024-02-21T00:05:42;100473.66;;;14.97;100.00
50368;BME280;36281;34.132;-118.018;2024-02-21T00:08:11;100474.09;;;14.94;100.00
50368;BME280;36281;34.132;-118.018;2024-02-21T00:10:41;100480.09;;;14.89;100.00
50368;BME280;36281;34.132;-118.018;2024-02-21T00:13:10;100480.81;;;14.96;100.00
50368;BME280;36281;34.132;-118.018;2024-02-21T00:15:39;100492.06;;;14.98;100.00
50368;BME280;36281;34.132;-118.018;2024-02-21T00:18:08;100489.28;;;14.93;100.00
50368;BME280;36281;34.132;-118.018;2024-02-21T00:20:41;100495.41;;;14.94;100.00
50368;BME280;36281;34.132;-118.018;2024-02-21T00:23:10;100481.28;;;14.93;100.00
50368;BME280;36281;34.132;-118.018;2024-02-21T00:25:39;100476.03;;;14.87;100.00
50368;BME280;36281;34.132;-118.018;2024-02-21T00:28:08;100487.41;;;14.94;100.00
50368;BME280;36281;34.132;-118.018;2024-02-21T00:30:37;100477.13;;;14.97;100.00
50368;BME280;36281;34.132;-118.018;2024-02-21T00:33:06;100478.00;;;14.91;100.00
50368;BME280;36281;34.132;-118.018;2024-02-21T00:35:35;100477.41;;;14.89;100.00
50368;BME280;36281;34.132;-118.018;2024-02-21T00:38:06;100484.63;;;14.89;100.00
50368;BME280;36281;34.132;-118.018;2024-02-21T00:40:35;100495.72;;;14.86;100.00
50368;BME280;36281;34.132;-118.018;2024-02-21T00:43:05;100482.19;;;14.87;100.00
50368;BME280;36281;34.132;-118.018;2024-02-21T00:45:34;100470.09;;;14.85;100.00
50368;BME280;36281;34.132;-118.018;2024-02-21T00:48:04;100470.53;;;14.82;100.00
50368;BME280;36281;34.132;-118.018;2024-02-21T00:50:33;100467.53;;;14.78;100.00
50368;BME280;36281;34.132;-118.018;2024-02-21T00:53:02;100460.56;;;14.77;100.00
50368;BME280;36281;34.132;-118.018;2024-02-21T00:55:33;100454.38;;;14.77;100.00
50368;BME280;36281;34.132;-118.018;2024-02-21T00:58:03;100443.97;;;14.75;100.00
50368;BME280;36281;34.132;-118.018;2024-02-21T01:00:32;100452.56;;;14.77;100.00
50368;BME280;36281;34.132;-118.018;2024-02-21T01:03:01;100471.56;;;14.81;100.00
50368;BME280;36281;34.132;-118.018;2024-02-21T01:05:30;100466.91;;;14.76;100.00
50368;BME280;36281;34.132;-118.018;2024-02-21T01:07:59;100469.22;;;14.72;100.00
50368;BME280;36281;34.132;-118.018;2024-02-21T01:10:28;100478.47;;;14.70;100.00
50368;BME280;36281;34.132;-118.018;2024-02-21T01:13:00;100460.88;;;14.69;100.00
50368;BME280;36281;34.132;-118.018;2024-02-21T01:15:29;100471.97;;;14.66;100.00
50368;BME280;36281;34.132;-118.018;2024-02-21T01:17:58;100492.63;;;14.70;100.00
50368;BME280;36281;34.132;-118.018;2024-02-21T01:20:27;100503.44;;;14.76;100.00
50368;BME280;36281;34.132;-118.018;2024-02-21T01:22:56;100502.72;;;14.68;100.00
50368;BME280;36281;34.132;-118.018;2024-02-21T01:25:25;100505.75;;;14.72;100.00
50368;BME280;36281;34.132;-118.018;2024-02-21T01:27:54;100501.53;;;14.64;100.00
50368;BME280;36281;34.132;-118.018;2024-02-21T01:30:25;100498.47;;;14.61;100.00
50368;BME280;36281;34.132;-118.018;2024-02-21T01:32:54;100487.22;;;14.59;100.00
50368;BME280;36281;34.132;-118.018;2024-02-21T01:35:23;100498.56;;;14.54;100.00
50368;BME280;36281;34.132;-118.018;2024-02-21T01:37:53;100488.97;;;14.46;100.00
50368;BME280;36281;34.132;-118.018;2024-02-21T01:40:22;100501.88;;;14.50;100.00
50368;BME280;36281;34.132;-118.018;2024-02-21T01:42:52;100510.47;;;14.52;100.00
50368;BME280;36281;34.132;-118.018;2024-02-21T01:45:25;100493.09;;;14.49;100.00
50368;BME280;36281;34.132;-118.018;2024-02-21T01:47:54;100483.63;;;14.46;100.00
50368;BME280;36281;34.132;-118.018;2024-02-21T01:50:24;100490.66;;;14.47;100.00
50368;BME280;36281;34.132;-118.018;2024-02-21T01:52:53;100499.22;;;14.50;100.00
50368;BME280;36281;34.132;-118.018;2024-02-21T01:55:22;100505.59;;;14.48;100.00
50368;BME280;36281;34.132;-118.018;2024-02-21T01:57:52;100506.63;;;14.47;100.00
50368;BME280;36281;34.132;-118.018;2024-02-21T02:00:21;100511.97;;;14.41;100.00
50368;BME280;36281;34.132;-118.018;2024-02-21T02:02:53;100518.78;;;14.37;100.00
50368;BME280;36281;34.132;-118.018;2024-02-21T02:05:22;100503.03;;;14.35;100.00
50368;BME280;36281;34.132;-118.018;2024-02-21T02:07:51;100492.13;;;14.37;100.00
50368;BME280;36281;34.132;-118.018;2024-02-21T02:10:21;100488.66;;;14.36;100.00
50368;BME280;36281;34.132;-118.018;2024-02-21T02:12:50;100496.66;;;14.36;100.00
50368;BME280;36281;34.132;-118.018;2024-02-21T02:15:19;100498.59;;;14.29;100.00
50368;BME280;36281;34.132;-118.018;2024-02-21T02:17:48;100500.44;;;14.29;100.00
50368;BME280;36281;34.132;-118.018;2024-02-21T02:20:19;100492.69;;;14.27;100.00
50368;BME280;36281;34.132;-118.018;2024-02-21T02:22:49;100496.34;;;14.26;100.00
50368;BME280;36281;34.132;-118.018;2024-02-21T02:25:20;100504.56;;;14.25;100.00
50368;BME280;36281;34.132;-118.018;2024-02-21T02:27:50;100508.47;;;14.22;100.00
50368;BME280;36281;34.132;-118.018;2024-02-21T02:30:19;100513.81;;;14.22;100.00
50368;BME280;36281;34.132;-118.018;2024-02-21T02:32:48;100514.66;;;14.22;100.00
50368;BME280;36281;34.132;-118.018;2024-02-21T02:35:17;100511.38;;;14.20;100.00
50368;BME280;36281;34.132;-118.018;2024-02-21T02:37:49;100501.97;;;14.18;100.00
50368;BME280;36281;34.132;-118.018;2024-02-21T02:40:20;100501.81;;;14.13;100.00
50368;BME280;36281;34.132;-118.018;2024-02-21T02:42:50;100491.00;;;14.08;100.00
50368;BME280;36281;34.132;-118.018;2024-02-21T02:45:19;100505.50;;;14.12;100.00
50368;BME280;36281;34.132;-118.018;2024-02-21T02:47:48;100496.50;;;14.13;100.00
50368;BME280;36281;34.132;-118.018;2024-02-21T02:50:17;100504.03;;;14.16;100.00
50368;BME280;36281;34.132;-118.018;2024-02-21T02:52:46;100501.22;;;14.11;100.00
50368;BME280;36281;34.132;-118.018;2024-02-21T02:55:15;100515.16;;;14.13;100.00
50368;BME280;36281;34.132;-118.018;2024-02-21T02:57:46;100510.91;;;14.05;100.00
50368;BME280;36281;34.132;-118.018;2024-02-21T03:00:16;100510.66;;;14.07;100.00
50368;BME280;36281;34.132;-118.018;2024-02-21T03:02:46;100512.53;;;14.06;100.00
50368;BME280;36281;34.132;-118.018;2024-02-21T03:05:16;100509.94;;;14.00;100.00
50368;BME280;36281;34.132;-118.018;2024-02-21T03:07:46;100513.78;;;14.04;100.00
50368;BME280;36281;34.132;-118.018;2024-02-21T03:10:15;100517.69;;;14.01;100.00
50368;BME280;36281;34.132;-118.018;2024-02-21T03:12:49;100527.91;;;14.04;100.00
50368;BME280;36281;34.132;-118.018;2024-02-21T03:15:19;100518.31;;;14.03;100.00
50368;BME280;36281;34.132;-118.018;2024-02-21T03:17:48;100521.81;;;13.97;100.00
50368;BME280;36281;34.132;-118.018;2024-02-21T03:20:17;100518.16;;;13.98;100.00
50368;BME280;36281;34.132;-118.018;2024-02-21T03:22:48;100515.91;;;13.95;100.00
50368;BME280;36281;34.132;-118.018;2024-02-21T03:25:17;100509.53;;;13.96;100.00
50368;BME280;36281;34.132;-118.018;2024-02-21T03:27:49;100511.56;;;14.01;100.00
50368;BME280;36281;34.132;-118.018;2024-02-21T03:30:20;100514.22;;;14.01;100.00
50368;BME280;36281;34.132;-118.018;2024-02-21T03:32:49;100510.97;;;13.99;100.00
50368;BME280;36281;34.132;-118.018;2024-02-21T03:35:18;100508.56;;;13.90;100.00
50368;BME280;36281;34.132;-118.018;2024-02-21T03:37:47;100508.34;;;13.92;100.00
50368;BME280;36281;34.132;-118.018;2024-02-21T03:40:16;100505.91;;;13.90;100.00
50368;BME280;36281;34.132;-118.018;2024-02-21T03:42:45;100505.09;;;13.90;100.00
50368;BME280;36281;34.132;-118.018;2024-02-21T03:45:16;100505.09;;;13.90;100.00
50368;BME280;36281;34.132;-118.018;2024-02-21T03:47:45;100508.78;;;13.89;100.00
50368;BME280;36281;34.132;-118.018;2024-02-21T03:50:14;100512.09;;;13.84;100.00
50368;BME280;36281;34.132;-118.018;2024-02-21T03:52:43;100500.69;;;13.77;100.00
50368;BME280;36281;34.132;-118.018;2024-02-21T03:55:12;100494.19;;;13.73;100.00
50368;BME280;36281;34.132;-118.018;2024-02-21T03:57:41;100497.03;;;13.71;100.00
50368;BME280;36281;34.132;-118.018;2024-02-21T04:00:11;100493.94;;;13.75;100.00
50368;BME280;36281;34.132;-118.018;2024-02-21T04:02:42;100496.03;;;13.73;100.00
50368;BME280;36281;34.132;-118.018;2024-02-21T04:05:11;100498.00;;;13.77;100.00
50368;BME280;36281;34.132;-118.018;2024-02-21T04:07:41;100498.47;;;13.74;100.00
50368;BME280;36281;34.132;-118.018;2024-02-21T04:10:10;100503.16;;;13.72;100.00
50368;BME280;36281;34.132;-118.018;2024-02-21T04:12:39;100498.72;;;13.66;100.00
50368;BME280;36281;34.132;-118.018;2024-02-21T04:15:08;100505.34;;;13.57;100.00
50368;BME280;36281;34.132;-118.018;2024-02-21T04:17:38;100502.13;;;13.48;100.00
50368;BME280;36281;34.132;-118.018;2024-02-21T04:20:15;100503.78;;;13.42;100.00
50368;BME280;36281;34.132;-118.018;2024-02-21T04:22:44;100497.13;;;13.33;100.00
50368;BME280;36281;34.132;-118.018;2024-02-21T04:25:13;100491.19;;;13.31;100.00
50368;BME280;36281;34.132;-118.018;2024-02-21T04:27:42;100494.28;;;13.28;100.00
50368;BME280;36281;34.132;-118.018;2024-02-21T04:30:12;100491.41;;;13.30;100.00
50368;BME280;36281;34.132;-118.018;2024-02-21T04:32:41;100485.66;;;13.33;100.00
50368;BME280;36281;34.132;-118.018;2024-02-21T04:35:12;100493.47;;;13.28;100.00
50368;BME280;36281;34.132;-118.018;2024-02-21T04:37:41;100488.13;;;13.21;100.00
50368;BME280;36281;34.132;-118.018;2024-02-21T04:40:11;100481.81;;;13.22;100.00
50368;BME280;36281;34.132;-118.018;2024-02-21T04:42:41;100493.25;;;13.23;100.00
50368;BME280;36281;34.132;-118.018;2024-02-21T04:45:11;100497.38;;;13.18;100.00
50368;BME280;36281;34.132;-118.018;2024-02-21T04:47:40;100496.13;;;13.21;100.00
50368;BME280;36281;34.132;-118.018;2024-02-21T04:50:11;100499.44;;;13.23;100.00
50368;BME280;36281;34.132;-118.018;2024-02-21T04:52:40;100495.50;;;13.26;100.00
50368;BME280;36281;34.132;-118.018;2024-02-21T04:55:09;100493.66;;;13.26;100.00
50368;BME280;36281;34.132;-118.018;2024-02-21T04:57:38;100484.47;;;13.29;100.00
50368;BME280;36281;34.132;-118.018;2024-02-21T05:00:08;100482.59;;;13.29;100.00
50368;BME280;36281;34.132;-118.018;2024-02-21T05:02:37;100489.78;;;13.29;100.00
50368;BME280;36281;34.132;-118.018;2024-02-21T05:05:07;100487.69;;;13.31;100.00
50368;BME280;36281;34.132;-118.018;2024-02-21T05:07:38;100488.31;;;13.33;100.00
50368;BME280;36281;34.132;-118.018;2024-02-21T05:10:08;100493.84;;;13.31;100.00
50368;BME280;36281;34.132;-118.018;2024-02-21T05:12:38;100495.28;;;13.34;100.00
50368;BME280;36281;34.132;-118.018;2024-02-21T05:15:08;100482.56;;;13.36;100.00
50368;BME280;36281;34.132;-118.018;2024-02-21T05:17:37;100484.81;;;13.39;100.00
50368;BME280;36281;34.132;-118.018;2024-02-21T05:20:07;100487.81;;;13.42;100.00
50368;BME280;36281;34.132;-118.018;2024-02-21T05:22:38;100480.50;;;13.38;100.00
50368;BME280;36281;34.132;-118.018;2024-02-21T05:25:08;100472.53;;;13.38;100.00
50368;BME280;36281;34.132;-118.018;2024-02-21T05:27:37;100469.03;;;13.37;100.00
50368;BME280;36281;34.132;-118.018;2024-02-21T05:30:07;100467.41;;;13.36;100.00
50368;BME280;36281;34.132;-118.018;2024-02-21T05:32:37;100463.50;;;13.39;100.00
50368;BME280;36281;34.132;-118.018;2024-02-21T05:35:06;100469.81;;;13.44;100.00
50368;BME280;36281;34.132;-118.018;2024-02-21T05:37:35;100466.53;;;13.42;100.00
50368;BME280;36281;34.132;-118.018;2024-02-21T05:40:07;100464.06;;;13.48;100.00
50368;BME280;36281;34.132;-118.018;2024-02-21T05:42:36;100467.97;;;13.45;100.00
50368;BME280;36281;34.132;-118.018;2024-02-21T05:45:06;100464.28;;;13.46;100.00
50368;BME280;36281;34.132;-118.018;2024-02-21T05:47:35;100469.81;;;13.44;100.00
50368;BME280;36281;34.132;-118.018;2024-02-21T05:50:05;100468.34;;;13.49;100.00
50368;BME280;36281;34.132;-118.018;2024-02-21T05:52:34;100461.22;;;13.42;100.00
50368;BME280;36281;34.132;-118.018;2024-02-21T05:55:06;100457.16;;;13.40;100.00
50368;BME280;36281;34.132;-118.018;2024-02-21T05:57:35;100454.72;;;13.38;100.00
50368;BME280;36281;34.132;-118.018;2024-02-21T06:00:05;100453.91;;;13.38;100.00
50368;BME280;36281;34.132;-118.018;2024-02-21T06:02:35;100459.94;;;13.52;100.00
50368;BME280;36281;34.132;-118.018;2024-02-21T06:05:05;100453.44;;;13.48;100.00
50368;BME280;36281;34.132;-118.018;2024-02-21T06:07:36;100454.88;;;13.43;100.00
50368;BME280;36281;34.132;-118.018;2024-02-21T06:10:07;100451.59;;;13.41;100.00
50368;BME280;36281;34.132;-118.018;2024-02-21T06:12:37;100448.06;;;13.54;100.00
50368;BME280;36281;34.132;-118.018;2024-02-21T06:15:07;100453.22;;;13.49;100.00
50368;BME280;36281;34.132;-118.018;2024-02-21T06:17:36;100453.84;;;13.44;100.00
50368;BME280;36281;34.132;-118.018;2024-02-21T06:20:06;100446.91;;;13.43;100.00
50368;BME280;36281;34.132;-118.018;2024-02-21T06:22:36;100446.09;;;13.43;100.00
50368;BME280;36281;34.132;-118.018;2024-02-21T06:25:07;100433.00;;;13.41;100.00
50368;BME280;36281;34.132;-118.018;2024-02-21T06:27:36;100433.38;;;13.45;100.00
50368;BME280;36281;34.132;-118.018;2024-02-21T06:30:06;100445.88;;;13.44;100.00
50368;BME280;36281;34.132;-118.018;2024-02-21T06:32:35;100439.94;;;13.42;100.00
50368;BME280;36281;34.132;-118.018;2024-02-21T06:35:05;100440.78;;;13.43;100.00
50368;BME280;36281;34.132;-118.018;2024-02-21T06:37:34;100429.28;;;13.42;100.00
50368;BME280;36281;34.132;-118.018;2024-02-21T06:40:06;100434.59;;;13.42;100.00
50368;BME280;36281;34.132;-118.018;2024-02-21T06:42:35;100439.94;;;13.42;100.00
50368;BME280;36281;34.132;-118.018;2024-02-21T06:45:05;100434.81;;;13.48;100.00
50368;BME280;36281;34.132;-118.018;2024-02-21T06:47:34;100433.31;;;13.52;100.00
50368;BME280;36281;34.132;-118.018;2024-02-21T06:50:04;100436.63;;;13.47;100.00
50368;BME280;36281;34.132;-118.018;2024-02-21T06:52:33;100434.97;;;13.53;100.00
50368;BME280;36281;34.132;-118.018;2024-02-21T06:55:03;100429.41;;;13.54;100.00
50368;BME280;36281;34.132;-118.018;2024-02-21T06:57:34;100435.97;;;13.52;100.00
50368;BME280;36281;34.132;-118.018;2024-02-21T07:00:03;100443.13;;;13.58;100.00
50368;BME280;36281;34.132;-118.018;2024-02-21T07:02:36;100442.06;;;13.59;100.00
50368;BME280;36281;34.132;-118.018;2024-02-21T07:05:06;100436.19;;;13.50;100.00
50368;BME280;36281;34.132;-118.018;2024-02-21T07:07:35;100418.00;;;13.47;100.00
50368;BME280;36281;34.132;-118.018;2024-02-21T07:10:05;100415.47;;;13.59;100.00
50368;BME280;36281;34.132;-118.018;2024-02-21T07:12:36;100417.47;;;13.63;100.00
50368;BME280;36281;34.132;-118.018;2024-02-21T07:15:07;100412.41;;;13.55;100.00
50368;BME280;36281;34.132;-118.018;2024-02-21T07:17:36;100423.94;;;13.49;100.00
50368;BME280;36281;34.132;-118.018;2024-02-21T07:20:06;100423.53;;;13.45;100.00
50368;BME280;36281;34.132;-118.018;2024-02-21T07:22:35;100415.16;;;13.42;100.00
50368;BME280;36281;34.132;-118.018;2024-02-21T07:25:05;100417.25;;;13.40;100.00
50368;BME280;36281;34.132;-118.018;2024-02-21T07:27:36;100418.22;;;13.45;100.00
50368;BME280;36281;34.132;-118.018;2024-02-21T07:30:06;100416.50;;;13.58;100.00
50368;BME280;36281;34.132;-118.018;2024-02-21T07:32:36;100415.63;;;13.64;100.00
50368;BME280;36281;34.132;-118.018;2024-02-21T07:35:05;100418.06;;;13.65;100.00
50368;BME280;36281;34.132;-118.018;2024-02-21T07:37:39;100417.47;;;13.63;100.00
50368;BME280;36281;34.132;-118.018;2024-02-21T07:40:13;100419.34;;;13.56;100.00
50368;BME280;36281;34.132;-118.018;2024-02-21T07:42:44;100413.69;;;13.53;100.00
50368;BME280;36281;34.132;-118.018;2024-02-21T07:45:18;100420.63;;;13.54;100.00
50368;BME280;36281;34.132;-118.018;2024-02-21T07:47:50;100409.75;;;13.55;100.00
50368;BME280;36281;34.132;-118.018;2024-02-21T07:50:19;100415.31;;;13.54;100.00
50368;BME280;36281;34.132;-118.018;2024-02-21T07:52:48;100413.06;;;13.51;100.00
50368;BME280;36281;34.132;-118.018;2024-02-21T07:55:18;100401.84;;;13.49;100.00
50368;BME280;36281;34.132;-118.018;2024-02-21T07:57:48;100389.19;;;13.44;100.00
50368;BME280;36281;34.132;-118.018;2024-02-21T08:00:19;100387.75;;;13.41;100.00
50368;BME280;36281;34.132;-118.018;2024-02-21T08:02:49;100380.44;;;13.37;100.00
50368;BME280;36281;34.132;-118.018;2024-02-21T08:05:18;100387.16;;;13.39;100.00
50368;BME280;36281;34.132;-118.018;2024-02-21T08:07:48;100393.47;;;13.45;100.00
50368;BME280;36281;34.132;-118.018;2024-02-21T08:10:18;100382.00;;;13.44;100.00
50368;BME280;36281;34.132;-118.018;2024-02-21T08:12:49;100385.53;;;13.38;100.00
50368;BME280;36281;34.132;-118.018;2024-02-21T08:15:18;100386.28;;;13.45;100.00
50368;BME280;36281;34.132;-118.018;2024-02-21T08:17:47;100381.84;;;13.39;100.00
50368;BME280;36281;34.132;-118.018;2024-02-21T08:20:16;100383.47;;;13.40;100.00
50368;BME280;36281;34.132;-118.018;2024-02-21T08:22:45;100377.22;;;13.53;100.00
50368;BME280;36281;34.132;-118.018;2024-02-21T08:25:14;100377.72;;;13.43;100.00
50368;BME280;36281;34.132;-118.018;2024-02-21T08:27:43;100369.34;;;13.40;100.00
50368;BME280;36281;34.132;-118.018;2024-02-21T08:30:16;100359.31;;;13.42;100.00
50368;BME280;36281;34.132;-118.018;2024-02-21T08:32:45;100361.91;;;13.49;100.00
50368;BME280;36281;34.132;-118.018;2024-02-21T08:35:14;100363.38;;;13.44;100.00
50368;BME280;36281;34.132;-118.018;2024-02-21T08:37:43;100358.13;;;13.38;100.00
50368;BME280;36281;34.132;-118.018;2024-02-21T08:40:12;100370.75;;;13.42;100.00
50368;BME280;36281;34.132;-118.018;2024-02-21T08:42:41;100375.31;;;13.35;100.00
50368;BME280;36281;34.132;-118.018;2024-02-21T08:45:11;100375.56;;;13.34;100.00
50368;BME280;36281;34.132;-118.018;2024-02-21T08:47:41;100371.63;;;13.36;100.00
50368;BME280;36281;34.132;-118.018;2024-02-21T08:50:11;100368.00;;;13.31;100.00
50368;BME280;36281;34.132;-118.018;2024-02-21T08:52:54;100371.63;;;13.36;100.00
50368;BME280;36281;34.132;-118.018;2024-02-21T08:55:24;100372.50;;;13.30;100.00
50368;BME280;36281;34.132;-118.018;2024-02-21T08:57:53;100364.28;;;13.32;100.00
50368;BME280;36281;34.132;-118.018;2024-02-21T09:00:22;100364.53;;;13.30;100.00
50368;BME280;36281;34.132;-118.018;2024-02-21T09:02:57;100362.13;;;13.22;100.00
50368;BME280;36281;34.132;-118.018;2024-02-21T09:05:26;100355.81;;;13.23;100.00
50368;BME280;36281;34.132;-118.018;2024-02-21T09:07:55;100358.84;;;13.20;100.00
50368;BME280;36281;34.132;-118.018;2024-02-21T09:10:24;100359.28;;;13.24;100.00
50368;BME280;36281;34.132;-118.018;2024-02-21T09:12:53;100359.47;;;13.22;100.00
50368;BME280;36281;34.132;-118.018;2024-02-21T09:15:23;100363.13;;;13.21;100.00
50368;BME280;36281;34.132;-118.018;2024-02-21T09:17:52;100366.81;;;13.20;100.00
50368;BME280;36281;34.132;-118.018;2024-02-21T09:20:23;100357.81;;;13.21;100.00
50368;BME280;36281;34.132;-118.018;2024-02-21T09:22:52;100357.22;;;13.19;100.00
50368;BME280;36281;34.132;-118.018;2024-02-21T09:25:22;100356.00;;;13.22;100.00
50368;BME280;36281;34.132;-118.018;2024-02-21T09:27:51;100349.84;;;13.21;100.00
50368;BME280;36281;34.132;-118.018;2024-02-21T09:30:20;100340.03;;;13.22;100.00
50368;BME280;36281;34.132;-118.018;2024-02-21T09:32:49;100334.91;;;13.20;100.00
50368;BME280;36281;34.132;-118.018;2024-02-21T09:35:18;100332.88;;;13.22;100.00
50368;BME280;36281;34.132;-118.018;2024-02-21T09:37:49;100335.34;;;13.24;100.00
50368;BME280;36281;34.132;-118.018;2024-02-21T09:40:18;100329.56;;;13.27;100.00
50368;BME280;36281;34.132;-118.018;2024-02-21T09:42:48;100325.88;;;13.28;100.00
50368;BME280;36281;34.132;-118.018;2024-02-21T09:45:20;100333.00;;;13.34;100.00
50368;BME280;36281;34.132;-118.018;2024-02-21T09:47:58;100331.84;;;13.23;100.00
50368;BME280;36281;34.132;-118.018;2024-02-21T09:50:32;100336.53;;;13.21;100.00
50368;BME280;36281;34.132;-118.018;2024-02-21T09:53:05;100330.41;;;13.20;100.00
50368;BME280;36281;34.132;-118.018;2024-02-21T09:55:36;100328.75;;;13.26;100.00
50368;BME280;36281;34.132;-118.018;2024-02-21T09:58:08;100328.09;;;13.31;100.00
50368;BME280;36281;34.132;-118.018;2024-02-21T10:00:38;100326.69;;;13.28;100.00
50368;BME280;36281;34.132;-118.018;2024-02-21T10:03:07;100319.75;;;13.20;100.00
50368;BME280;36281;34.132;-118.018;2024-02-21T10:05:37;100315.47;;;13.19;100.00
50368;BME280;36281;34.132;-118.018;2024-02-21T10:08:14;100311.19;;;13.18;100.00
50368;BME280;36281;34.132;-118.018;2024-02-21T10:10:44;100310.38;;;13.18;100.00
50368;BME280;36281;34.132;-118.018;2024-02-21T10:13:25;100310.38;;;13.18;100.00
50368;BME280;36281;34.132;-118.018;2024-02-21T10:16:05;100302.19;;;13.19;100.00
50368;BME280;36281;34.132;-118.018;2024-02-21T10:18:35;100299.09;;;13.23;100.00
50368;BME280;36281;34.132;-118.018;2024-02-21T10:21:05;100291.97;;;13.23;100.00
50368;BME280;36281;34.132;-118.018;2024-02-21T10:23:46;100293.13;;;13.27;100.00
50368;BME280;36281;34.132;-118.018;2024-02-21T10:26:17;100294.97;;;13.27;100.00
50368;BME280;36281;34.132;-118.018;2024-02-21T10:28:47;100296.81;;;13.26;100.00
50368;BME280;36281;34.132;-118.018;2024-02-21T10:31:23;100292.53;;;13.25;100.00
50368;BME280;36281;34.132;-118.018;2024-02-21T10:33:57;100288.84;;;13.26;100.00
50368;BME280;36281;34.132;-118.018;2024-02-21T10:36:26;100287.59;;;13.29;100.00
50368;BME280;36281;34.132;-118.018;2024-02-21T10:38:57;100293.41;;;13.19;100.00
50368;BME280;36281;34.132;-118.018;2024-02-21T10:41:26;100289.13;;;13.18;100.00
50368;BME280;36281;34.132;-118.018;2024-02-21T10:43:58;100295.28;;;13.12;100.00
50368;BME280;36281;34.132;-118.018;2024-02-21T10:46:29;100278.09;;;13.14;100.00
50368;BME280;36281;34.132;-118.018;2024-02-21T10:49:09;100282.94;;;13.17;100.00
50368;BME280;36281;34.132;-118.018;2024-02-21T10:51:43;100287.75;;;13.09;100.00
50368;BME280;36281;34.132;-118.018;2024-02-21T10:54:27;100284.06;;;13.10;100.00
50368;BME280;36281;34.132;-118.018;2024-02-21T10:57:01;100278.09;;;13.14;100.00
50368;BME280;36281;34.132;-118.018;2024-02-21T10:59:32;100286.44;;;13.18;100.00
50368;BME280;36281;34.132;-118.018;2024-02-21T11:02:02;100302.97;;;13.27;100.00
50368;BME280;36281;34.132;-118.018;2024-02-21T11:04:33;100298.09;;;13.24;100.00
50368;BME280;36281;34.132;-118.018;2024-02-21T11:07:05;100296.25;;;13.24;100.00
50368;BME280;36281;34.132;-118.018;2024-02-21T11:09:40;100283.31;;;13.28;100.00
50368;BME280;36281;34.132;-118.018;2024-02-21T11:12:09;100284.19;;;13.22;100.00
50368;BME280;36281;34.132;-118.018;2024-02-21T11:14:38;100290.31;;;13.22;100.00
50368;BME280;36281;34.132;-118.018;2024-02-21T11:17:15;100294.44;;;13.18;100.00
50368;BME280;36281;34.132;-118.018;2024-02-21T11:19:45;100298.09;;;13.17;100.00
50368;BME280;36281;34.132;-118.018;2024-02-21T11:22:15;100291.53;;;13.19;100.00
50368;BME280;36281;34.132;-118.018;2024-02-21T11:24:49;100286.66;;;13.16;100.00
50368;BME280;36281;34.132;-118.018;2024-02-21T11:27:20;100279.94;;;13.14;100.00
50368;BME280;36281;34.132;-118.018;2024-02-21T11:29:54;100284.66;;;13.12;100.00
50368;BME280;36281;34.132;-118.018;2024-02-21T11:32:24;100291.13;;;13.23;100.00
50368;BME280;36281;34.132;-118.018;2024-02-21T11:34:55;100303.41;;;13.24;100.00
50368;BME280;36281;34.132;-118.018;2024-02-21T11:37:25;100322.66;;;13.19;100.00
50368;BME280;36281;34.132;-118.018;2024-02-21T11:39:58;100319.84;;;13.14;100.00
50368;BME280;36281;34.132;-118.018;2024-02-21T11:42:27;100319.66;;;13.09;100.00
50368;BME280;36281;34.132;-118.018;2024-02-21T11:44:57;100322.09;;;13.10;100.00
50368;BME280;36281;34.132;-118.018;2024-02-21T11:47:28;100316.72;;;13.17;100.00
50368;BME280;36281;34.132;-118.018;2024-02-21T11:49:58;100320.63;;;13.14;100.00
50368;BME280;36281;34.132;-118.018;2024-02-21T11:52:27;100321.34;;;13.03;100.00
50368;BME280;36281;34.132;-118.018;2024-02-21T11:54:58;100323.16;;;13.03;100.00
50368;BME280;36281;34.132;-118.018;2024-02-21T11:57:33;100323.16;;;13.03;100.00
50368;BME280;36281;34.132;-118.018;2024-02-21T12:00:13;100325.56;;;13.11;100.00
50368;BME280;36281;34.132;-118.018;2024-02-21T12:02:43;100331.94;;;13.10;100.00
50368;BME280;36281;34.132;-118.018;2024-02-21T12:05:12;100330.94;;;13.04;100.00
50368;BME280;36281;34.132;-118.018;2024-02-21T12:07:42;100341.63;;;12.98;100.00
50368;BME280;36281;34.132;-118.018;2024-02-21T12:10:13;100342.66;;;12.97;100.00
50368;BME280;36281;34.132;-118.018;2024-02-21T12:12:42;100343.75;;;12.89;100.00
50368;BME280;36281;34.132;-118.018;2024-02-21T12:15:11;100345.84;;;12.80;100.00
50368;BME280;36281;34.132;-118.018;2024-02-21T12:17:41;100343.41;;;12.79;100.00
50368;BME280;36281;34.132;-118.018;2024-02-21T12:20:10;100348.31;;;12.75;100.00
50368;BME280;36281;34.132;-118.018;2024-02-21T12:22:44;100343.25;;;12.67;100.00
50368;BME280;36281;34.132;-118.018;2024-02-21T12:25:22;100329.78;;;12.62;100.00